createdAt,value
2018-09-23T00:02:39.664Z,90.90
2018-09-23T00:07:39.662Z,89.60
2018-09-23T00:12:39.351Z,90.84
2018-09-23T00:17:38.473Z,90.90
2018-09-23T00:22:37.189Z,90.70
2018-09-23T00:27:35.924Z,90.96
2018-09-23T00:32:34.368Z,90.74
2018-09-23T00:37:33.789Z,91.02
2018-09-23T00:42:32.490Z,90.89
2018-09-23T00:47:30.939Z,91.39
2018-09-23T00:52:31.648Z,91.53
2018-09-23T00:57:30.792Z,91.24
2018-09-23T01:02:30.090Z,91.42
2018-09-23T01:07:29.316Z,90.58
2018-09-23T01:12:28.462Z,91.21
2018-09-23T01:17:27.061Z,90.88
2018-09-23T01:22:26.356Z,90.67
2018-09-23T01:27:24.712Z,91.26
2018-09-23T01:32:23.799Z,91.21
2018-09-23T01:37:23.433Z,91.19
2018-09-23T01:42:23.328Z,91.23
2018-09-23T01:47:22.360Z,91.80
2018-09-23T01:52:21.040Z,91.51
2018-09-23T01:57:20.014Z,91.66
2018-09-23T02:02:19.698Z,91.71
2018-09-23T02:07:19.087Z,91.59
2018-09-23T02:12:18.793Z,92.47
2018-09-23T02:17:19.066Z,91.96
2018-09-23T02:22:17.624Z,91.34
2018-09-23T02:27:16.864Z,91.66
2018-09-23T02:32:16.284Z,91.96
2018-09-23T02:37:14.979Z,90.81
2018-09-23T02:42:15.284Z,90.43
2018-09-23T02:47:13.640Z,90.43
2018-09-23T02:52:12.576Z,90.84
2018-09-23T02:57:12.591Z,91.39
2018-09-23T03:02:12.157Z,90.81
2018-09-23T03:07:13.229Z,90.68
2018-09-23T03:12:12.609Z,90.21
2018-09-23T03:17:10.585Z,91.59
2018-09-23T03:22:08.558Z,89.83
2018-09-23T03:27:06.545Z,90.75
2018-09-23T03:32:04.571Z,90.37
2018-09-23T03:37:02.376Z,89.53
2018-09-23T03:42:01.647Z,89.78
2018-09-23T03:46:59.374Z,90.97
2018-09-23T03:51:57.519Z,91.09
2018-09-23T03:56:55.481Z,90.60
2018-09-23T04:01:53.416Z,91.22
2018-09-23T04:06:51.446Z,91.17
2018-09-23T04:11:51.882Z,91.00
2018-09-23T04:16:49.800Z,90.99
2018-09-23T04:21:47.891Z,89.78
2018-09-23T04:26:46.810Z,89.87
2018-09-23T04:31:44.758Z,89.31
2018-09-23T04:36:42.801Z,89.68
2018-09-23T04:41:47.613Z,89.21
2018-09-23T04:46:45.718Z,88.94
2018-09-23T04:51:43.801Z,89.50
2018-09-23T04:56:42.068Z,89.65
2018-09-23T05:01:40.267Z,89.13
2018-09-23T05:06:38.328Z,89.08
2018-09-23T05:11:49.072Z,89.48
2018-09-23T05:16:47.405Z,89.76
2018-09-23T05:21:45.904Z,90.06
2018-09-23T05:26:44.010Z,88.57
2018-09-23T05:31:42.159Z,89.74
2018-09-23T05:36:42.300Z,89.27
2018-09-23T05:41:50.412Z,88.14
2018-09-23T05:46:48.455Z,88.67
2018-09-23T05:51:46.710Z,88.89
2018-09-23T05:56:44.894Z,89.47
2018-09-23T06:01:42.796Z,89.96
2018-09-23T06:06:41.024Z,88.03
2018-09-23T06:11:51.450Z,88.85
2018-09-23T06:16:49.772Z,88.25
2018-09-23T06:21:48.323Z,87.67
2018-09-23T06:26:46.498Z,87.42
2018-09-23T06:31:47.307Z,88.94
2018-09-23T06:36:45.156Z,86.59
2018-09-23T06:41:49.996Z,87.87
2018-09-23T06:46:47.709Z,87.35
2018-09-23T06:51:45.160Z,86.99
2018-09-23T06:56:42.676Z,86.79
2018-09-23T07:01:40.133Z,85.64
2018-09-23T07:06:37.634Z,85.76
2018-09-23T07:11:48.747Z,86.11
2018-09-23T07:16:46.173Z,85.54
2018-09-23T07:21:43.631Z,85.88
2018-09-23T07:26:41.073Z,85.15
2018-09-23T07:31:38.515Z,85.89
2018-09-23T07:36:36.008Z,84.90
2018-09-23T07:41:50.691Z,85.32
2018-09-23T07:46:48.216Z,84.18
2018-09-23T07:51:45.692Z,83.69
2018-09-23T07:56:43.116Z,83.39
2018-09-23T08:01:40.613Z,83.02
2018-09-23T08:06:38.041Z,83.12
2018-09-23T08:11:45.366Z,83.10
2018-09-23T08:16:42.828Z,83.03
2018-09-23T08:21:40.300Z,82.55
2018-09-23T08:26:37.811Z,82.48
2018-09-23T08:31:35.284Z,82.43
2018-09-23T08:36:32.724Z,82.99
2018-09-23T08:41:37.714Z,82.93
2018-09-23T08:46:36.028Z,82.77
2018-09-23T08:51:33.637Z,83.71
2018-09-23T08:56:31.119Z,82.58
2018-09-23T09:01:28.538Z,81.58
2018-09-23T09:06:25.969Z,80.97
2018-09-23T09:11:28.502Z,81.05
2018-09-23T09:16:26.031Z,80.02
2018-09-23T09:21:24.032Z,81.86
2018-09-23T09:26:21.473Z,81.26
2018-09-23T09:31:19.053Z,82.08
2018-09-23T09:36:16.475Z,83.70
2018-09-23T09:41:15.658Z,82.86
2018-09-23T09:46:13.137Z,83.90
2018-09-23T09:51:10.591Z,84.61
2018-09-23T09:56:14.565Z,83.91
2018-09-23T10:01:11.984Z,84.03
2018-09-23T10:06:09.493Z,84.08
2018-09-23T10:11:07.099Z,83.97
2018-09-23T10:16:04.524Z,83.69
2018-09-23T10:21:01.984Z,84.54
2018-09-23T10:25:59.528Z,85.96
2018-09-23T10:30:56.982Z,86.19
2018-09-23T10:35:54.354Z,86.90
2018-09-23T10:40:51.772Z,87.23
2018-09-23T10:45:49.199Z,88.66
2018-09-23T10:50:46.612Z,89.60
2018-09-23T10:55:44.124Z,90.78
2018-09-23T11:00:41.514Z,89.99
2018-09-23T11:05:39.260Z,90.11
2018-09-23T11:10:37.113Z,90.91
2018-09-23T11:15:34.516Z,90.04
2018-09-23T11:20:31.971Z,90.37
2018-09-23T11:25:30.255Z,89.64
2018-09-23T11:30:27.763Z,90.52
2018-09-23T11:35:25.227Z,90.70
2018-09-23T11:40:22.619Z,90.85
2018-09-23T11:45:20.047Z,89.58
2018-09-23T11:50:17.692Z,90.21
2018-09-23T11:55:15.077Z,89.88
2018-09-23T12:00:12.477Z,89.94
2018-09-23T12:05:09.846Z,90.92
2018-09-23T12:10:07.238Z,91.33
2018-09-23T12:15:04.660Z,90.22
2018-09-23T12:20:02.110Z,89.51
2018-09-23T12:24:59.503Z,90.91
2018-09-23T12:29:56.900Z,91.23
2018-09-23T12:34:54.303Z,90.18
2018-09-23T12:39:51.748Z,90.49
2018-09-23T12:44:49.112Z,90.75
2018-09-23T12:49:46.548Z,90.46
2018-09-23T12:54:43.954Z,91.06
2018-09-23T12:59:41.343Z,91.11
2018-09-23T13:04:38.726Z,90.44
2018-09-23T13:09:36.115Z,91.02
2018-09-23T13:14:33.523Z,91.85
2018-09-23T13:19:30.950Z,91.24
2018-09-23T13:24:28.333Z,90.74
2018-09-23T13:29:25.775Z,90.63
2018-09-23T13:34:23.172Z,90.21
2018-09-23T13:39:37.875Z,89.66
2018-09-23T13:44:36.875Z,90.66
2018-09-23T13:49:36.711Z,90.03
2018-09-23T13:54:36.506Z,91.36
2018-09-23T13:59:34.131Z,90.02
2018-09-23T14:04:33.880Z,89.57
2018-09-23T14:09:31.447Z,89.19
2018-09-23T14:14:32.124Z,90.14
2018-09-23T14:19:35.237Z,90.57
2018-09-23T14:24:38.580Z,90.40
2018-09-23T14:29:36.254Z,90.47
2018-09-23T14:34:33.855Z,90.84
2018-09-23T14:39:31.596Z,88.89
2018-09-23T14:44:29.186Z,89.77
2018-09-23T14:49:27.690Z,89.75
2018-09-23T14:54:25.747Z,90.57
2018-09-23T14:59:23.544Z,89.56
2018-09-23T15:04:21.101Z,89.14
2018-09-23T15:09:26.248Z,89.31
2018-09-23T15:14:23.890Z,89.25
2018-09-23T15:19:24.891Z,87.56
2018-09-23T15:24:22.617Z,88.64
2018-09-23T15:29:23.695Z,89.91
2018-09-23T15:34:21.397Z,87.74
2018-09-23T15:39:20.478Z,87.19
2018-09-23T15:44:19.124Z,88.20
2018-09-23T15:49:19.612Z,88.32
2018-09-23T15:54:17.606Z,88.62
2018-09-23T15:59:17.276Z,88.51
2018-09-23T16:04:16.374Z,88.58
2018-09-23T16:09:14.048Z,88.32
2018-09-23T16:14:11.517Z,87.08
2018-09-23T16:19:12.141Z,87.67
2018-09-23T16:24:09.746Z,87.27
2018-09-23T16:29:07.156Z,87.07
2018-09-23T16:34:04.612Z,87.19
2018-09-23T16:39:02.128Z,87.95
2018-09-23T16:43:59.513Z,87.23
2018-09-23T16:48:56.911Z,87.51
2018-09-23T16:53:55.699Z,88.28
2018-09-23T16:58:53.295Z,88.64
2018-09-23T17:03:51.552Z,89.28
2018-09-23T17:08:49.929Z,90.05
2018-09-23T17:13:49.774Z,90.60
2018-09-23T17:18:47.320Z,90.71
2018-09-23T17:23:44.790Z,91.33
2018-09-23T17:28:42.255Z,91.31
2018-09-23T17:33:41.443Z,91.18
2018-09-23T17:38:43.897Z,91.19
2018-09-23T17:43:55.706Z,91.74
2018-09-23T17:48:56.533Z,91.77
2018-09-23T17:53:58.045Z,91.90
2018-09-23T17:58:55.583Z,92.05
2018-09-23T18:03:52.979Z,91.95
2018-09-23T18:08:53.493Z,91.79
2018-09-23T18:13:53.582Z,90.87
2018-09-23T18:18:53.306Z,91.87
2018-09-23T18:23:54.873Z,91.23
2018-09-23T18:28:52.323Z,90.89
2018-09-23T18:33:49.695Z,91.02
2018-09-23T18:38:47.130Z,91.91
2018-09-23T18:43:44.539Z,91.83
2018-09-23T18:48:41.930Z,91.65
2018-09-23T18:53:43.917Z,91.64
2018-09-23T18:58:41.432Z,91.85
2018-09-23T19:03:38.843Z,91.36
2018-09-23T19:08:36.424Z,92.02
2018-09-23T19:13:39.399Z,91.67
2018-09-23T19:18:36.883Z,91.83
2018-09-23T19:23:34.281Z,91.42
2018-09-23T19:28:31.672Z,92.02
2018-09-23T19:33:29.060Z,91.96
2018-09-23T19:38:26.434Z,92.62
2018-09-23T19:43:23.796Z,93.18
2018-09-23T19:48:21.203Z,92.79
2018-09-23T19:53:23.599Z,93.15
2018-09-23T19:58:21.315Z,93.25
2018-09-23T20:03:18.700Z,92.82
2018-09-23T20:08:16.115Z,93.65
2018-09-23T20:13:13.584Z,93.19
2018-09-23T20:18:10.961Z,93.58
2018-09-23T20:23:08.411Z,93.66
2018-09-23T20:28:05.804Z,93.77
2018-09-23T20:33:03.687Z,92.99
2018-09-23T20:38:01.060Z,92.70
2018-09-23T20:42:58.427Z,93.41
2018-09-23T20:47:55.800Z,92.67
2018-09-23T20:52:53.199Z,92.89
2018-09-23T20:57:50.574Z,92.11
2018-09-23T21:02:47.963Z,92.66
2018-09-23T21:07:45.356Z,92.64
2018-09-23T21:12:42.884Z,92.49
2018-09-23T21:17:40.812Z,92.42
2018-09-23T21:22:39.084Z,92.42
2018-09-23T21:27:36.972Z,92.73
2018-09-23T21:32:34.384Z,92.65
2018-09-23T21:37:31.872Z,93.11
2018-09-23T21:42:29.355Z,92.72
2018-09-23T21:47:26.746Z,92.76
2018-09-23T21:52:24.215Z,92.86
2018-09-23T21:57:21.598Z,93.00
2018-09-23T22:02:18.985Z,93.66
2018-09-23T22:07:16.359Z,92.51
2018-09-23T22:12:14.780Z,93.07
2018-09-23T22:17:12.159Z,92.96
2018-09-23T22:22:09.580Z,93.85
2018-09-23T22:27:07.075Z,93.17
2018-09-23T22:32:04.589Z,93.02
2018-09-23T22:37:01.964Z,92.86
2018-09-23T22:42:00.576Z,93.45
2018-09-23T22:46:58.070Z,93.14
2018-09-23T22:51:55.475Z,92.89
2018-09-23T22:56:52.834Z,93.10
2018-09-23T23:01:50.205Z,92.29
2018-09-23T23:06:47.589Z,92.72
2018-09-23T23:11:49.279Z,92.61
2018-09-23T23:16:46.678Z,92.62
2018-09-23T23:21:44.052Z,92.11
2018-09-23T23:26:41.432Z,92.24
2018-09-23T23:31:38.822Z,92.02
2018-09-23T23:36:36.222Z,92.41
2018-09-23T23:41:37.565Z,92.55
2018-09-23T23:46:35.310Z,92.00
2018-09-23T23:51:32.684Z,92.26
2018-09-23T23:56:30.183Z,92.19
